Time;durP1;ratioP1;P1;durP2;ratioP2;P2;SDS_P1;SDS_P2;PMS_P1;PMS_P2;Temp;Humidity;BMP_temperature;BMP_pressure;BME280_temperature;BME280_humidity;BME280_pressure;Samples;Min_cycle;Max_cycle;Signal;HPM_P1;HPM_P2
2023/05/15 00:02:14;;;;;;;13.23;11.93;;;16.10;1.00;;;;;;5075763;28;20567;-68
2023/05/15 00:04:41;;;;;;;16.33;11.37;;;16.10;1.00;;;;;;5075625;28;20454;-68
2023/05/15 00:07:08;;;;;;;11.33;10.33;;;16.00;1.00;;;;;;5075775;28;20744;-68
2023/05/15 00:09:35;;;;;;;13.87;11.67;;;15.90;1.00;;;;;;5075394;28;20529;-68
2023/05/15 00:12:02;;;;;;;13.20;11.43;;;15.90;1.00;;;;;;5075146;28;20468;-68
2023/05/15 00:14:30;;;;;;;15.30;13.70;;;15.80;1.00;;;;;;5075380;28;20454;-68
2023/05/15 00:16:57;;;;;;;16.77;13.50;;;15.80;1.00;;;;;;5075203;28;20758;-68
2023/05/15 00:19:24;;;;;;;16.77;13.27;;;15.80;1.00;;;;;;5075406;28;20478;-68
2023/05/15 00:21:50;;;;;;;14.77;13.17;;;15.80;1.00;;;;;;5075203;28;20549;-68
2023/05/15 00:24:17;;;;;;;15.93;13.70;;;15.70;1.00;;;;;;5075135;28;20454;-68
2023/05/15 00:26:44;;;;;;;14.07;12.33;;;15.70;1.00;;;;;;5075248;28;20563;-68
2023/05/15 00:29:11;;;;;;;12.93;11.70;;;15.70;1.00;;;;;;5074980;28;20995;-68
2023/05/15 00:31:39;;;;;;;17.33;13.30;;;15.70;1.00;;;;;;5074862;28;20454;-68
2023/05/15 00:34:06;;;;;;;13.77;12.37;;;15.70;1.00;;;;;;5075149;28;20854;-68
2023/05/15 00:36:33;;;;;;;15.50;13.07;;;15.70;1.00;;;;;;5074628;28;20518;-69
2023/05/15 00:38:59;;;;;;;12.50;11.20;;;15.60;1.00;;;;;;5074683;28;20481;-69
2023/05/15 00:41:30;;;;;;;13.80;12.37;;;15.60;1.00;;;;;;5074630;28;20468;-69
2023/05/15 00:43:59;;;;;;;12.73;11.33;;;15.50;1.00;;;;;;5074522;28;20911;-69
2023/05/15 00:46:27;;;;;;;14.60;11.97;;;15.50;1.00;;;;;;5075042;28;20494;-69
2023/05/15 00:48:57;;;;;;;12.27;11.00;;;15.50;1.00;;;;;;5074829;28;20450;-68
2023/05/15 00:51:27;;;;;;;12.47;11.27;;;15.50;1.00;;;;;;5075027;28;20477;-69
2023/05/15 00:53:55;;;;;;;13.47;12.23;;;15.50;1.00;;;;;;5075116;28;20541;-68
2023/05/15 00:56:22;;;;;;;13.03;11.83;;;15.40;1.00;;;;;;5074780;28;20464;-68
2023/05/15 00:58:50;;;;;;;12.77;11.40;;;15.50;1.00;;;;;;5074381;28;21045;-69
2023/05/15 01:01:18;;;;;;;14.20;11.37;;;15.50;1.00;;;;;;5078680;28;20464;-69
2023/05/15 01:03:45;;;;;;;11.53;10.43;;;15.40;1.00;;;;;;5080877;28;20468;-69
2023/05/15 01:06:14;;;;;;;12.07;10.87;;;15.40;1.00;;;;;;5081016;28;20940;-69
2023/05/15 01:08:45;;;;;;;14.70;11.20;;;15.40;1.00;;;;;;5081396;28;20449;-69
2023/05/15 01:11:13;;;;;;;12.83;11.63;;;15.30;1.00;;;;;;5081042;28;20516;-69
2023/05/15 01:13:40;;;;;;;14.20;12.70;;;15.30;1.00;;;;;;5081313;28;20493;-68
2023/05/15 01:16:08;;;;;;;12.93;11.63;;;15.30;1.00;;;;;;5081060;28;20454;-68
2023/05/15 01:18:35;;;;;;;13.57;11.97;;;15.30;1.00;;;;;;5081051;28;20499;-69
2023/05/15 01:21:25;;;;;;;15.20;12.20;;;15.30;1.00;;;;;;5080843;28;20450;-69
2023/05/15 01:24:04;;;;;;;14.03;11.47;;;15.20;1.00;;;;;;5080744;28;20545;-68
2023/05/15 01:26:55;;;;;;;12.17;11.07;;;15.30;1.00;;;;;;5080791;28;20438;-68
2023/05/15 01:29:28;;;;;;;13.67;11.33;;;15.20;1.00;;;;;;5080870;28;20442;-69
2023/05/15 01:32:02;;;;;;;13.70;11.67;;;15.20;1.00;;;;;;5080560;28;20434;-69
2023/05/15 01:34:36;;;;;;;13.43;12.03;;;15.20;1.00;;;;;;5080779;28;20785;-69
2023/05/15 01:37:04;;;;;;;13.70;12.30;;;15.20;1.00;;;;;;5081220;28;20433;-68
2023/05/15 01:39:35;;;;;;;12.93;11.73;;;15.10;1.00;;;;;;5080688;28;20965;-69
2023/05/15 01:42:07;;;;;;;12.60;11.30;;;15.10;1.00;;;;;;5080549;28;20442;-69
2023/05/15 01:44:38;;;;;;;14.43;11.87;;;15.00;1.00;;;;;;5081002;28;20447;-69
2023/05/15 01:47:09;;;;;;;15.70;11.40;;;15.00;99.90;;;;;;5080920;28;20449;-69
2023/05/15 01:49:39;;;;;;;13.60;12.23;;;14.90;99.90;;;;;;5080949;28;20480;-69
2023/05/15 01:52:10;;;;;;;13.30;12.00;;;14.90;99.90;;;;;;5080631;28;20470;-68
2023/05/15 01:54:38;;;;;;;13.40;12.00;;;14.80;99.90;;;;;;5081029;28;20464;-68
2023/05/15 01:57:07;;;;;;;13.00;11.77;;;14.70;99.90;;;;;;5080619;28;20464;-67
2023/05/15 01:59:36;;;;;;;13.90;12.50;;;14.80;99.90;;;;;;5080584;28;20999;-69
2023/05/15 02:02:05;;;;;;;13.47;12.20;;;14.70;99.90;;;;;;5080730;28;20454;-68
2023/05/15 02:04:33;;;;;;;14.17;12.77;;;14.70;99.90;;;;;;5080902;28;20453;-68
2023/05/15 02:07:02;;;;;;;14.70;13.10;;;14.50;99.90;;;;;;5081023;28;20468;-69
2023/05/15 02:09:29;;;;;;;14.73;13.33;;;14.40;99.90;;;;;;5080857;28;20482;-68
2023/05/15 02:11:57;;;;;;;15.27;13.77;;;14.50;99.90;;;;;;5078398;28;20458;-68
2023/05/15 02:14:26;;;;;;;16.87;15.27;;;14.40;99.90;;;;;;5085006;28;20464;-70
2023/05/15 02:16:54;;;;;;;17.20;15.10;;;14.40;99.90;;;;;;5087979;28;20526;-70
2023/05/15 02:19:21;;;;;;;15.70;14.20;;;14.50;99.90;;;;;;5086395;28;20510;-69
2023/05/15 02:21:48;;;;;;;16.10;14.50;;;14.50;99.90;;;;;;5086480;28;20486;-69
2023/05/15 02:24:15;;;;;;;16.00;14.00;;;14.50;99.90;;;;;;5086043;28;20456;-69
2023/05/15 02:26:48;;;;;;;15.40;13.80;;;14.50;99.90;;;;;;5085674;28;20505;-69
2023/05/15 02:29:20;;;;;;;15.27;13.77;;;14.50;99.90;;;;;;5086632;28;20501;-69
2023/05/15 02:31:53;;;;;;;16.93;14.27;;;14.50;99.90;;;;;;5086308;28;20555;-70
2023/05/15 02:34:32;;;;;;;16.87;15.10;;;14.50;99.90;;;;;;5085209;28;20442;-69
2023/05/15 02:37:03;;;;;;;16.40;14.40;;;14.50;99.90;;;;;;5085305;28;20510;-68
2023/05/15 02:39:31;;;;;;;15.00;13.40;;;14.50;99.90;;;;;;5084881;28;20546;-68
2023/05/15 02:42:00;;;;;;;18.73;15.47;;;14.40;99.90;;;;;;5084829;28;20516;-69
2023/05/15 02:44:28;;;;;;;15.93;14.33;;;14.40;99.90;;;;;;5084924;28;20518;-69
2023/05/15 02:46:55;;;;;;;15.67;13.30;;;14.50;99.90;;;;;;5084077;28;20470;-69
2023/05/15 02:49:24;;;;;;;15.03;13.43;;;14.50;99.90;;;;;;5083378;28;20539;-69
2023/05/15 02:51:51;;;;;;;15.50;13.90;;;14.50;99.90;;;;;;5084041;28;20541;-69
2023/05/15 02:54:18;;;;;;;15.83;14.33;;;14.50;99.90;;;;;;5083860;28;20484;-69
2023/05/15 02:56:45;;;;;;;16.23;14.60;;;14.50;99.90;;;;;;5083854;28;20465;-69
2023/05/15 02:59:17;;;;;;;16.40;14.60;;;14.50;99.90;;;;;;5083267;28;20484;-69
2023/05/15 03:01:44;;;;;;;16.30;13.80;;;14.50;99.90;;;;;;5083624;28;20435;-69
2023/05/15 03:04:11;;;;;;;15.03;13.53;;;14.60;99.90;;;;;;5083002;28;20579;-70
2023/05/15 03:06:39;;;;;;;17.20;14.60;;;14.60;99.90;;;;;;5083237;28;20450;-69
2023/05/15 03:09:06;;;;;;;25.23;15.63;;;14.60;99.90;;;;;;5083070;28;20965;-69
2023/05/15 03:11:32;;;;;;;16.23;14.53;;;14.60;99.90;;;;;;5082834;28;20517;-69
2023/05/15 03:13:59;;;;;;;16.30;14.47;;;14.70;99.90;;;;;;5081998;28;20458;-69
2023/05/15 03:16:26;;;;;;;15.03;13.43;;;14.70;99.90;;;;;;5082894;28;20576;-69
2023/05/15 03:18:53;;;;;;;15.30;13.70;;;14.60;99.90;;;;;;5082541;28;20500;-70
2023/05/15 03:21:20;;;;;;;15.77;13.70;;;14.60;99.90;;;;;;5082532;28;20537;-70
2023/05/15 03:23:48;;;;;;;16.33;14.00;;;14.60;99.90;;;;;;5082094;28;20450;-69
2023/05/15 03:26:15;;;;;;;15.73;13.83;;;14.60;99.90;;;;;;5082080;28;20529;-69
2023/05/15 03:28:42;;;;;;;15.03;13.63;;;14.60;99.90;;;;;;5082317;28;20450;-70
2023/05/15 03:31:08;;;;;;;14.60;13.10;;;14.60;99.90;;;;;;5082286;28;20457;-70
2023/05/15 03:33:35;;;;;;;15.97;14.37;;;14.50;99.90;;;;;;5082791;28;20513;-69
2023/05/15 03:36:02;;;;;;;14.23;12.80;;;14.50;99.90;;;;;;5082423;28;20522;-69
2023/05/15 03:38:29;;;;;;;15.60;13.83;;;14.50;99.90;;;;;;5082570;28;20565;-69
2023/05/15 03:40:57;;;;;;;16.27;14.57;;;14.40;99.90;;;;;;5083195;28;20492;-70
2023/05/15 03:43:24;;;;;;;16.73;15.03;;;14.30;99.90;;;;;;5083305;28;20468;-70
2023/05/15 03:45:51;;;;;;;18.50;16.00;;;14.10;99.90;;;;;;5083789;28;20476;-69
2023/05/15 03:48:18;;;;;;;19.50;16.33;;;14.00;99.90;;;;;;5083214;28;20534;-69
2023/05/15 03:50:45;;;;;;;18.17;16.10;;;13.90;99.90;;;;;;5083813;28;20501;-69
2023/05/15 03:53:12;;;;;;;16.47;14.87;;;13.80;99.90;;;;;;5083742;28;20468;-69
2023/05/15 03:55:39;;;;;;;17.67;15.90;;;13.70;99.90;;;;;;5083748;28;20510;-69
2023/05/15 03:58:07;;;;;;;16.40;14.70;;;13.60;99.90;;;;;;5083968;28;20469;-68
2023/05/15 04:00:34;;;;;;;19.20;16.13;;;13.50;99.90;;;;;;5084982;28;20502;-69
2023/05/15 04:03:02;;;;;;;15.87;14.43;;;13.40;99.90;;;;;;5084496;28;20489;-69
2023/05/15 04:05:28;;;;;;;15.70;14.10;;;13.30;99.90;;;;;;5085748;28;20464;-69
2023/05/15 04:07:55;;;;;;;16.40;14.80;;;13.20;99.90;;;;;;5085270;28;20541;-69
2023/05/15 04:10:22;;;;;;;14.83;13.43;;;13.20;99.90;;;;;;5086039;28;20560;-69
2023/05/15 04:12:50;;;;;;;14.50;13.10;;;13.10;99.90;;;;;;5086671;28;20497;-69
2023/05/15 04:15:20;;;;;;;13.70;12.50;;;13.20;99.90;;;;;;5085746;28;20458;-70
2023/05/15 04:17:48;;;;;;;15.70;14.30;;;13.20;99.90;;;;;;5085518;28;20455;-69
2023/05/15 04:20:17;;;;;;;15.53;13.20;;;13.20;99.90;;;;;;5085534;28;21041;-69
2023/05/15 04:22:45;;;;;;;14.23;12.93;;;13.30;99.90;;;;;;5085965;28;20451;-69
2023/05/15 04:25:13;;;;;;;14.07;12.83;;;13.30;99.90;;;;;;5085159;28;20518;-69
2023/05/15 04:27:41;;;;;;;15.00;12.90;;;13.40;99.90;;;;;;5084679;28;20454;-69
2023/05/15 04:30:09;;;;;;;14.80;13.40;;;13.50;99.90;;;;;;5084187;28;20461;-69
2023/05/15 04:32:38;;;;;;;12.97;11.80;;;13.50;99.90;;;;;;5084449;28;20482;-69
2023/05/15 04:35:08;;;;;;;13.50;12.20;;;13.60;99.90;;;;;;5083872;28;20458;-69
2023/05/15 04:37:36;;;;;;;14.53;13.03;;;13.60;99.90;;;;;;5085056;28;20435;-69
2023/05/15 04:40:03;;;;;;;13.57;12.20;;;13.70;99.90;;;;;;5082903;28;20510;-69
2023/05/15 04:42:30;;;;;;;13.13;11.50;;;13.70;99.90;;;;;;5084311;28;20458;-69
2023/05/15 04:44:57;;;;;;;17.17;12.23;;;13.80;99.90;;;;;;5083381;28;20446;-68
2023/05/15 04:47:23;;;;;;;11.97;10.73;;;13.90;99.90;;;;;;5083328;28;20839;-69
2023/05/15 04:49:52;;;;;;;14.60;12.90;;;13.90;99.90;;;;;;5083407;28;20522;-69
2023/05/15 04:52:18;;;;;;;12.07;10.90;;;14.00;99.90;;;;;;5083012;28;20828;-69
2023/05/15 04:54:46;;;;;;;17.27;11.93;;;14.00;99.90;;;;;;5082751;28;20545;-69
2023/05/15 04:57:13;;;;;;;76.83;55.07;;;14.10;99.90;;;;;;5082714;28;20466;-69
2023/05/15 04:59:40;;;;;;;30.07;24.10;;;14.10;99.90;;;;;;5082724;28;20549;-69
2023/05/15 05:02:09;;;;;;;14.37;11.90;;;14.20;99.90;;;;;;5083940;28;20458;-69
2023/05/15 05:04:35;;;;;;;14.60;11.60;;;14.20;99.90;;;;;;5083162;28;20454;-69
2023/05/15 05:07:04;;;;;;;13.70;12.30;;;14.20;99.90;;;;;;5083373;28;20647;-69
2023/05/15 05:09:31;;;;;;;13.40;11.93;;;14.20;99.90;;;;;;5082685;28;20458;-69
2023/05/15 05:11:59;;;;;;;12.77;11.67;;;14.30;99.90;;;;;;5082486;28;20465;-69
2023/05/15 05:14:26;;;;;;;17.80;11.97;;;14.30;99.90;;;;;;5083015;28;20522;-69
2023/05/15 05:16:53;;;;;;;12.37;11.13;;;14.40;99.90;;;;;;5082132;28;20491;-69
2023/05/15 05:19:20;;;;;;;12.30;11.20;;;14.40;99.90;;;;;;5082454;28;20450;-69
2023/05/15 05:21:47;;;;;;;11.23;10.23;;;14.50;99.90;;;;;;5081380;28;20478;-69
2023/05/15 05:24:15;;;;;;;15.13;10.13;;;14.50;99.90;;;;;;5080854;28;20497;-70
2023/05/15 05:26:43;;;;;;;12.03;10.70;;;14.60;99.90;;;;;;5080292;28;20518;-70
2023/05/15 05:29:10;;;;;;;15.93;10.90;;;14.70;99.90;;;;;;5081526;28;20862;-69
2023/05/15 05:31:37;;;;;;;52.80;22.03;;;14.70;99.90;;;;;;5075974;28;20446;-67
2023/05/15 05:34:04;;;;;;;63.23;24.10;;;14.80;99.90;;;;;;5073962;28;20458;-67
2023/05/15 05:36:31;;;;;;;20.80;12.93;;;14.80;99.90;;;;;;5074017;28;20486;-67
2023/05/15 05:38:58;;;;;;;13.07;11.30;;;14.90;99.90;;;;;;5073789;28;20489;-67
2023/05/15 05:41:26;;;;;;;12.30;10.97;;;14.90;99.90;;;;;;5074014;28;20492;-67
2023/05/15 05:43:53;;;;;;;10.90;9.90;;;15.00;99.90;;;;;;5073937;28;20545;-67
2023/05/15 05:46:20;;;;;;;11.37;10.20;;;15.10;99.90;;;;;;5074727;28;20454;-67
2023/05/15 05:48:47;;;;;;;13.07;11.70;;;15.10;99.90;;;;;;5077639;28;20973;-68
2023/05/15 05:51:14;;;;;;;11.97;10.93;;;15.20;99.90;;;;;;5077344;28;20537;-67
2023/05/15 05:53:41;;;;;;;11.17;10.17;;;15.30;99.90;;;;;;5077432;28;20457;-68
2023/05/15 05:56:08;;;;;;;12.43;11.23;;;15.30;99.90;;;;;;5077563;28;20462;-67
2023/05/15 05:58:36;;;;;;;11.93;10.00;;;15.40;99.90;;;;;;5077662;28;20500;-68
2023/05/15 06:01:04;;;;;;;11.77;10.43;;;15.40;99.90;;;;;;5078717;28;20568;-66
2023/05/15 06:03:32;;;;;;;12.07;10.90;;;15.40;99.90;;;;;;5078899;28;20466;-67
2023/05/15 06:05:59;;;;;;;12.53;10.33;;;15.50;99.90;;;;;;5078533;28;20588;-67
2023/05/15 06:08:26;;;;;;;12.57;11.20;;;15.50;99.90;;;;;;5076987;28;20519;-69
2023/05/15 06:10:53;;;;;;;11.07;9.90;;;15.50;99.90;;;;;;5077335;28;20493;-68
2023/05/15 06:13:20;;;;;;;11.07;9.93;;;15.60;99.90;;;;;;5077160;28;20553;-67
2023/05/15 06:15:48;;;;;;;11.90;10.33;;;15.60;99.90;;;;;;5077098;28;20523;-67
2023/05/15 06:18:15;;;;;;;11.70;10.53;;;15.70;99.90;;;;;;5076999;28;20541;-67
2023/05/15 06:20:42;;;;;;;12.77;11.07;;;15.70;99.90;;;;;;5076804;28;20484;-68
2023/05/15 06:23:09;;;;;;;12.47;10.07;;;15.70;99.90;;;;;;5076894;28;20785;-67
2023/05/15 06:25:36;;;;;;;11.07;10.00;;;15.70;99.90;;;;;;5076951;28;20773;-67
2023/05/15 06:28:03;;;;;;;12.60;11.33;;;15.80;99.90;;;;;;5077016;28;20847;-67
2023/05/15 06:30:30;;;;;;;11.27;10.00;;;15.80;99.90;;;;;;5076774;28;20506;-67
2023/05/15 06:32:58;;;;;;;13.13;10.40;;;15.80;99.90;;;;;;5076470;28;20474;-66
2023/05/15 06:35:25;;;;;;;11.93;10.70;;;15.80;99.90;;;;;;5076862;28;20485;-68
2023/05/15 06:37:52;;;;;;;11.83;10.47;;;15.90;99.90;;;;;;5076839;28;20454;-67
2023/05/15 06:40:19;;;;;;;13.63;10.00;;;15.90;99.90;;;;;;5076484;28;20494;-68
2023/05/15 06:42:46;;;;;;;13.77;10.23;;;16.00;99.90;;;;;;5076799;28;20454;-68
2023/05/15 06:45:12;;;;;;;10.73;9.63;;;16.00;99.90;;;;;;5076545;28;20450;-67
2023/05/15 06:47:39;;;;;;;13.00;9.40;;;16.00;99.90;;;;;;5076585;28;20913;-68
2023/05/15 06:50:09;;;;;;;10.30;9.20;;;16.10;99.90;;;;;;5076230;28;20465;-67
2023/05/15 06:52:35;;;;;;;13.13;10.53;;;16.10;99.90;;;;;;5076352;28;20455;-68
2023/05/15 06:55:02;;;;;;;15.27;11.13;;;16.10;99.90;;;;;;5076548;28;20553;-68
2023/05/15 06:57:29;;;;;;;12.13;9.20;;;16.10;99.90;;;;;;5076581;28;20454;-67
2023/05/15 06:59:56;;;;;;;10.20;9.27;;;16.20;99.90;;;;;;5075740;28;20785;-68
2023/05/15 07:02:23;;;;;;;14.00;10.50;;;16.30;99.90;;;;;;5075931;28;20489;-67
2023/05/15 07:04:50;;;;;;;15.33;9.67;;;16.30;99.90;;;;;;5076564;28;20564;-67
2023/05/15 07:07:18;;;;;;;12.40;10.30;;;16.40;99.90;;;;;;5076716;28;20553;-67
2023/05/15 07:09:47;;;;;;;11.17;9.97;;;16.60;99.90;;;;;;5076118;28;20460;-68
2023/05/15 07:12:14;;;;;;;21.80;13.60;;;16.70;99.90;;;;;;5076425;28;20545;-67
2023/05/15 07:14:41;;;;;;;13.00;11.60;;;16.80;99.90;;;;;;5076135;28;20461;-67
2023/05/15 07:17:08;;;;;;;10.63;8.70;;;16.90;99.90;;;;;;5076173;28;20549;-68
2023/05/15 07:19:35;;;;;;;15.93;10.20;;;17.00;99.90;;;;;;5075701;28;20474;-67
2023/05/15 07:22:01;;;;;;;11.40;9.87;;;17.10;99.90;;;;;;5076018;28;20584;-66
2023/05/15 07:24:30;;;;;;;10.70;9.53;;;17.20;99.90;;;;;;5076242;28;20484;-68
2023/05/15 07:26:56;;;;;;;10.13;9.20;;;17.30;99.90;;;;;;5076069;28;20458;-67
2023/05/15 07:29:23;;;;;;;11.30;9.30;;;17.50;99.90;;;;;;5076173;28;20480;-66
2023/05/15 07:31:50;;;;;;;13.70;8.93;;;17.60;99.90;;;;;;5075609;28;20461;-67
2023/05/15 07:34:17;;;;;;;11.80;9.27;;;17.80;99.90;;;;;;5075704;28;20458;-68
2023/05/15 07:36:44;;;;;;;12.30;8.00;;;17.90;99.90;;;;;;5076007;28;20923;-67
2023/05/15 07:39:11;;;;;;;9.77;8.87;;;18.00;99.90;;;;;;5075393;28;20774;-67
2023/05/15 07:41:39;;;;;;;10.97;9.73;;;18.00;99.90;;;;;;5075798;28;20493;-67
2023/05/15 07:44:06;;;;;;;10.10;9.10;;;18.10;99.90;;;;;;5075762;28;20458;-67
2023/05/15 07:46:33;;;;;;;12.87;10.87;;;18.10;99.90;;;;;;5075616;28;20480;-67
2023/05/15 07:49:00;;;;;;;12.47;10.40;;;18.20;99.90;;;;;;5075640;28;20455;-67
2023/05/15 07:51:26;;;;;;;10.80;8.70;;;18.30;99.90;;;;;;5075464;28;20477;-67
2023/05/15 07:53:53;;;;;;;9.73;8.73;;;18.40;99.90;;;;;;5075161;28;20497;-67
2023/05/15 07:56:20;;;;;;;15.87;10.17;;;18.50;99.90;;;;;;5075363;28;20556;-67
2023/05/15 07:58:48;;;;;;;14.30;9.93;;;18.50;99.90;;;;;;5075326;28;20464;-67
2023/05/15 08:01:15;;;;;;;14.00;8.27;;;18.60;99.90;;;;;;5075850;28;20488;-67
2023/05/15 08:03:42;;;;;;;10.03;7.70;;;18.70;99.90;;;;;;5074860;28;20459;-67
2023/05/15 08:06:09;;;;;;;10.63;8.00;;;18.80;99.90;;;;;;5075226;28;20454;-69
2023/05/15 08:08:36;;;;;;;10.73;8.13;;;18.90;99.90;;;;;;5075355;28;20454;-67
2023/05/15 08:11:03;;;;;;;10.37;9.23;;;18.90;99.90;;;;;;5073991;28;20911;-68
2023/05/15 08:13:30;;;;;;;9.70;8.53;;;18.90;99.90;;;;;;5074682;28;20454;-67
2023/05/15 08:15:58;;;;;;;8.93;8.03;;;18.80;99.90;;;;;;5075145;28;20595;-68
2023/05/15 08:18:25;;;;;;;9.33;8.37;;;18.90;99.90;;;;;;5074521;28;20464;-68
2023/05/15 08:20:52;;;;;;;11.60;8.33;;;18.90;99.90;;;;;;5074849;28;20505;-68
2023/05/15 08:23:19;;;;;;;13.37;7.90;;;18.90;99.90;;;;;;5074976;28;20455;-67
2023/05/15 08:25:45;;;;;;;11.13;7.40;;;18.90;99.90;;;;;;5074426;28;20991;-67
2023/05/15 08:28:12;;;;;;;8.57;7.63;;;18.90;99.90;;;;;;5074808;28;20458;-68
2023/05/15 08:30:39;;;;;;;11.00;7.53;;;18.90;99.90;;;;;;5074717;28;20454;-68
2023/05/15 08:33:07;;;;;;;18.10;9.27;;;18.90;99.90;;;;;;5074650;28;20454;-67
2023/05/15 08:35:34;;;;;;;11.80;7.30;;;18.90;99.90;;;;;;5074758;28;20476;-67
2023/05/15 08:38:02;;;;;;;11.20;6.70;;;18.90;99.90;;;;;;5074596;28;20788;-67
2023/05/15 08:40:29;;;;;;;7.77;7.10;;;18.80;99.90;;;;;;5074138;28;20494;-67
2023/05/15 08:42:58;;;;;;;9.77;7.07;;;18.80;99.90;;;;;;5074385;28;20492;-67
2023/05/15 08:45:26;;;;;;;7.37;6.67;;;18.80;99.90;;;;;;5074560;28;20454;-66
2023/05/15 08:47:53;;;;;;;7.37;6.67;;;18.80;99.90;;;;;;5074405;28;20469;-67
2023/05/15 08:50:23;;;;;;;9.57;8.60;;;18.70;99.90;;;;;;5074469;28;20464;-67
2023/05/15 08:52:51;;;;;;;8.17;7.37;;;18.60;99.90;;;;;;5074362;28;20464;-67
2023/05/15 08:55:18;;;;;;;7.47;6.70;;;18.50;99.90;;;;;;5074369;28;20792;-67
2023/05/15 08:57:47;;;;;;;8.80;7.60;;;18.40;99.90;;;;;;5074315;28;20465;-67
2023/05/15 09:00:15;;;;;;;13.77;8.23;;;18.50;99.90;;;;;;5074013;28;20541;-67
2023/05/15 09:02:42;;;;;;;9.33;7.77;;;18.50;99.90;;;;;;5074502;28;20798;-67
2023/05/15 09:05:10;;;;;;;11.87;8.23;;;18.60;99.90;;;;;;5074617;28;20458;-68
2023/05/15 09:07:40;;;;;;;10.50;7.70;;;18.70;99.90;;;;;;5074435;28;20922;-68
2023/05/15 09:10:09;;;;;;;8.20;7.40;;;18.70;99.90;;;;;;5074011;28;20764;-68
2023/05/15 09:12:41;;;;;;;7.60;7.00;;;18.80;99.90;;;;;;5073731;28;20464;-67
2023/05/15 09:15:10;;;;;;;10.70;7.57;;;18.80;99.90;;;;;;5074029;28;20442;-67
2023/05/15 09:17:37;;;;;;;17.77;7.10;;;18.90;99.90;;;;;;5073937;28;20879;-67
2023/05/15 09:20:06;;;;;;;10.03;6.73;;;18.90;99.90;;;;;;5074201;28;20454;-67
2023/05/15 09:22:35;;;;;;;7.57;6.80;;;18.90;99.90;;;;;;5076670;28;20477;-67
2023/05/15 09:25:03;;;;;;;7.87;6.90;;;19.00;99.90;;;;;;5077943;28;20455;-67
2023/05/15 09:27:30;;;;;;;8.53;7.50;;;18.90;99.90;;;;;;5078012;28;20454;-67
2023/05/15 09:30:08;;;;;;;7.83;7.13;;;18.90;99.90;;;;;;5077641;28;20453;-68
2023/05/15 09:32:37;;;;;;;11.73;8.70;;;19.00;99.90;;;;;;5078064;28;20724;-67
2023/05/15 09:35:05;;;;;;;7.70;7.00;;;19.10;99.90;;;;;;5077997;28;20528;-68
2023/05/15 09:37:33;;;;;;;7.40;6.67;;;19.10;99.90;;;;;;5077840;28;20785;-67
2023/05/15 09:40:12;;;;;;;11.50;7.03;;;19.20;99.90;;;;;;5077543;28;20826;-67
2023/05/15 09:42:38;;;;;;;10.73;6.10;;;19.30;99.90;;;;;;5077414;28;20492;-68
2023/05/15 09:45:06;;;;;;;7.33;6.50;;;19.40;99.90;;;;;;5077774;28;20549;-67
2023/05/15 09:47:34;;;;;;;8.20;6.00;;;19.40;99.90;;;;;;5077801;28;20792;-67
2023/05/15 09:50:00;;;;;;;7.07;5.90;;;19.50;99.90;;;;;;5077360;28;20454;-68
2023/05/15 09:52:28;;;;;;;8.93;6.30;;;19.50;99.90;;;;;;5077706;28;20561;-69
2023/05/15 09:54:56;;;;;;;6.70;5.80;;;19.70;99.90;;;;;;5077817;28;20761;-68
2023/05/15 09:57:25;;;;;;;7.63;6.47;;;19.70;99.90;;;;;;5077436;28;20927;-66
2023/05/15 09:59:52;;;;;;;10.03;6.30;;;19.50;99.90;;;;;;5077578;28;20454;-68
2023/05/15 10:02:31;;;;;;;6.70;6.00;;;19.50;99.90;;;;;;5077402;28;20588;-67
2023/05/15 10:04:58;;;;;;;8.17;5.83;;;19.40;99.90;;;;;;5077285;28;20477;-67
2023/05/15 10:07:30;;;;;;;7.40;5.30;;;19.50;99.90;;;;;;5077115;28;20511;-68
2023/05/15 10:09:57;;;;;;;5.37;4.87;;;19.50;99.90;;;;;;5076759;28;20465;-68
2023/05/15 10:12:25;;;;;;;5.50;5.00;;;19.50;99.90;;;;;;5076979;28;20489;-68
2023/05/15 10:14:55;;;;;;;11.30;6.80;;;19.40;99.90;;;;;;5076884;28;20485;-66
2023/05/15 10:17:23;;;;;;;8.50;5.90;;;19.40;99.90;;;;;;5076790;28;20442;-67
2023/05/15 10:19:51;;;;;;;12.73;7.23;;;19.40;99.90;;;;;;5077031;28;20935;-67
2023/05/15 10:22:23;;;;;;;10.27;6.50;;;19.40;99.90;;;;;;5076966;28;20482;-67
2023/05/15 10:24:57;;;;;;;7.43;5.43;;;19.40;99.90;;;;;;5076819;28;20568;-67
2023/05/15 10:27:26;;;;;;;15.53;6.20;;;19.50;99.90;;;;;;5078254;28;20454;-68
2023/05/15 10:29:54;;;;;;;14.60;6.27;;;19.40;99.90;;;;;;5077332;28;20488;-67
2023/05/15 10:32:22;;;;;;;8.23;5.67;;;19.40;99.90;;;;;;5076781;28;20464;-67
2023/05/15 10:34:51;;;;;;;10.30;5.77;;;19.40;99.90;;;;;;5075678;28;20464;-67
2023/05/15 10:37:18;;;;;;;6.90;5.80;;;19.40;99.90;;;;;;5077203;28;20450;-67
2023/05/15 10:39:47;;;;;;;7.80;5.40;;;19.40;99.90;;;;;;5076989;28;20488;-68
2023/05/15 10:42:14;;;;;;;10.00;6.40;;;19.40;99.90;;;;;;5077544;28;20862;-66
2023/05/15 10:44:43;;;;;;;5.93;5.33;;;19.40;99.90;;;;;;5076788;28;20928;-66
2023/05/15 10:47:10;;;;;;;6.50;5.17;;;19.30;99.90;;;;;;5076430;28;20906;-68
2023/05/15 10:49:37;;;;;;;5.93;4.90;;;19.30;99.90;;;;;;5076399;28;20458;-67
2023/05/15 10:52:04;;;;;;;8.20;5.90;;;19.30;99.90;;;;;;5076697;28;20460;-68
2023/05/15 10:54:31;;;;;;;5.63;4.37;;;19.30;99.90;;;;;;5076136;28;20458;-66
2023/05/15 10:56:58;;;;;;;2.77;2.57;;;19.20;99.90;;;;;;5076362;28;20464;-66
2023/05/15 10:59:31;;;;;;;5.90;2.70;;;19.20;99.90;;;;;;5075779;28;20466;-66
2023/05/15 11:02:20;;;;;;;3.50;2.93;;;19.10;99.40;;;;;;5075840;28;20846;-66
2023/05/15 11:04:47;;;;;;;3.00;2.70;;;19.10;99.90;;;;;;5075920;28;20446;-68
2023/05/15 11:07:16;;;;;;;4.03;3.73;;;19.10;99.90;;;;;;5076022;28;20454;-66
2023/05/15 11:09:43;;;;;;;5.17;4.70;;;19.10;99.90;;;;;;5075783;28;20553;-67
2023/05/15 11:12:11;;;;;;;5.50;5.00;;;19.10;99.90;;;;;;5075712;28;20454;-68
2023/05/15 11:14:40;;;;;;;12.57;11.47;;;19.30;99.90;;;;;;5075906;28;20497;-66
2023/05/15 11:17:10;;;;;;;5.27;3.47;;;19.40;99.90;;;;;;5075469;28;20454;-67
2023/05/15 11:19:39;;;;;;;3.50;3.20;;;19.60;99.80;;;;;;5075510;28;20465;-67
2023/05/15 11:22:20;;;;;;;3.10;2.80;;;19.80;98.40;;;;;;5075412;28;20478;-67
2023/05/15 11:24:51;;;;;;;3.80;3.13;;;19.90;95.70;;;;;;5075872;28;20484;-67
2023/05/15 11:27:20;;;;;;;3.70;3.30;;;20.00;97.50;;;;;;5075705;28;20475;-66
2023/05/15 11:30:07;;;;;;;6.20;3.33;;;20.10;98.40;;;;;;5075477;28;20921;-67
2023/05/15 11:32:51;;;;;;;3.23;2.80;;;20.20;99.90;;;;;;5075049;28;20899;-68
2023/05/15 11:35:27;;;;;;;3.60;3.33;;;20.90;99.90;;;;;;5075192;28;20442;-68
2023/05/15 11:37:57;;;;;;;6.60;4.03;;;21.50;96.60;;;;;;5075830;28;20453;-67
2023/05/15 11:40:26;;;;;;;6.83;4.83;;;21.70;94.90;;;;;;5074896;28;20546;-67
2023/05/15 11:43:16;;;;;;;7.03;4.60;;;21.70;94.60;;;;;;5074696;28;20493;-67
2023/05/15 11:45:46;;;;;;;4.80;4.27;;;21.90;94.60;;;;;;5074609;28;20452;-67
2023/05/15 11:48:16;;;;;;;6.90;4.40;;;22.40;94.70;;;;;;5075114;28;20458;-67
2023/05/15 11:50:44;;;;;;;4.10;3.70;;;23.00;92.70;;;;;;5074837;28;20465;-67
2023/05/15 11:53:12;;;;;;;4.57;4.10;;;23.40;91.00;;;;;;5074525;28;20466;-67
2023/05/15 11:55:40;;;;;;;6.13;4.30;;;23.70;91.30;;;;;;5074307;28;20464;-67
2023/05/15 11:58:11;;;;;;;4.13;3.70;;;24.60;86.00;;;;;;5074841;28;20553;-67
2023/05/15 12:00:38;;;;;;;4.50;3.77;;;25.60;80.90;;;;;;5074953;28;20438;-68
2023/05/15 12:03:05;;;;;;;4.03;3.50;;;26.70;69.60;;;;;;5075058;28;20481;-67
2023/05/15 12:05:33;;;;;;;3.60;3.30;;;27.70;62.70;;;;;;5074879;28;20787;-67
2023/05/15 12:08:02;;;;;;;4.67;3.20;;;28.70;54.60;;;;;;5074540;28;20465;-67
2023/05/15 12:10:31;;;;;;;3.47;3.13;;;29.60;48.10;;;;;;5074841;28;20464;-68
2023/05/15 12:12:58;;;;;;;6.50;2.80;;;30.30;44.00;;;;;;5075225;28;20450;-69
2023/05/15 12:15:27;;;;;;;3.50;3.20;;;31.00;39.70;;;;;;5074802;28;20536;-69
2023/05/15 12:17:53;;;;;;;2.90;2.60;;;31.80;37.00;;;;;;5074793;28;20758;-68
2023/05/15 12:20:20;;;;;;;4.07;3.77;;;32.10;33.10;;;;;;5074663;28;20474;-68
2023/05/15 12:22:48;;;;;;;5.10;2.70;;;31.60;30.50;;;;;;5074418;28;20565;-68
2023/05/15 12:25:16;;;;;;;6.63;4.40;;;31.50;29.60;;;;;;5074408;28;20930;-68
2023/05/15 12:27:43;;;;;;;3.83;2.90;;;31.50;29.50;;;;;;5074686;28;20454;-68
2023/05/15 12:30:13;;;;;;;3.83;3.27;;;31.50;30.00;;;;;;5074270;28;20564;-68
2023/05/15 12:32:40;;;;;;;5.30;3.10;;;31.50;29.60;;;;;;5074631;28;20790;-68
2023/05/15 12:35:08;;;;;;;3.63;3.40;;;32.00;29.10;;;;;;5074190;28;20454;-68
2023/05/15 12:37:36;;;;;;;9.60;8.70;;;32.20;28.80;;;;;;5074153;28;20961;-68
2023/05/15 12:40:09;;;;;;;5.27;4.87;;;32.50;28.50;;;;;;5074290;28;20492;-68
2023/05/15 12:42:39;;;;;;;4.50;4.20;;;32.80;27.60;;;;;;5074557;28;20502;-69